Time;durP1;ratioP1;P1;durP2;ratioP2;P2;SDS_P1;SDS_P2;PMS_P1;PMS_P2;Temp;Humidity;BMP_temperature;BMP_pressure;BME280_temperature;BME280_humidity;BME280_pressure;Samples;Min_cycle;Max_cycle;Signal;HPM_P1;HPM_P2
2022/09/12 00:00:06;;;;;;;7.20;6.50;;;;;;;;;;5158304;27;20368;-59
2022/09/12 00:02:32;;;;;;;7.25;6.55;;;;;;;;;;5158025;27;20456;-59
2022/09/12 00:04:59;;;;;;;9.15;7.40;;;;;;;;;;5159073;27;20167;-59
2022/09/12 00:07:25;;;;;;;8.75;7.85;;;;;;;;;;5158073;27;20031;-59
2022/09/12 00:09:51;;;;;;;12.57;7.38;;;;;;;;;;5158554;27;20033;-59
2022/09/12 00:12:16;;;;;;;13.18;8.50;;;;;;;;;;5158073;27;20025;-59
2022/09/12 00:14:42;;;;;;;6.40;5.80;;;;;;;;;;5158314;27;20049;-59
2022/09/12 00:17:08;;;;;;;7.03;6.30;;;;;;;;;;5158567;27;20023;-59
2022/09/12 00:19:34;;;;;;;7.90;6.90;;;;;;;;;;5157900;27;20114;-59
2022/09/12 00:22:01;;;;;;;7.43;6.57;;;;;;;;;;5157906;27;20092;-59
2022/09/12 00:24:27;;;;;;;8.25;6.22;;;;;;;;;;5158391;27;20046;-59
2022/09/12 00:26:53;;;;;;;9.05;8.15;;;;;;;;;;5157796;27;20079;-59
2022/09/12 00:29:20;;;;;;;8.57;7.53;;;;;;;;;;5157720;27;20393;-59
2022/09/12 00:31:46;;;;;;;9.50;8.48;;;;;;;;;;5157894;27;20026;-59
2022/09/12 00:34:12;;;;;;;8.43;7.18;;;;;;;;;;5158252;27;20027;-59
2022/09/12 00:36:38;;;;;;;7.95;7.15;;;;;;;;;;5158070;27;20463;-59
2022/09/12 00:39:05;;;;;;;9.52;7.30;;;;;;;;;;5158374;27;20109;-59
2022/09/12 00:41:32;;;;;;;9.88;7.32;;;;;;;;;;5157827;27;20022;-59
2022/09/12 00:44:01;;;;;;;7.88;7.07;;;;;;;;;;5158063;27;20023;-59
2022/09/12 00:46:27;;;;;;;9.23;6.30;;;;;;;;;;5157371;27;20083;-59
2022/09/12 00:49:00;;;;;;;7.60;6.80;;;;;;;;;;5157695;27;20046;-59
2022/09/12 00:51:29;;;;;;;9.00;7.55;;;;;;;;;;5157182;27;20500;-59
2022/09/12 00:53:55;;;;;;;10.05;7.72;;;;;;;;;;5157186;27;20540;-59
2022/09/12 00:56:23;;;;;;;8.82;7.95;;;;;;;;;;5157735;27;20029;-59
2022/09/12 00:58:52;;;;;;;10.10;9.10;;;;;;;;;;5157135;27;20022;-59
2022/09/12 01:01:18;;;;;;;14.13;9.70;;;;;;;;;;5157163;27;20176;-59
2022/09/12 01:03:44;;;;;;;10.07;8.40;;;;;;;;;;5157392;27;20509;-59
2022/09/12 01:06:15;;;;;;;9.68;8.65;;;;;;;;;;5157310;27;20071;-59
2022/09/12 01:08:42;;;;;;;12.10;9.43;;;;;;;;;;5156967;27;20033;-59
2022/09/12 01:11:09;;;;;;;9.65;8.65;;;;;;;;;;5156782;27;20077;-59
2022/09/12 01:13:35;;;;;;;9.30;8.38;;;;;;;;;;5156065;27;20452;-59
2022/09/12 01:16:03;;;;;;;11.48;10.15;;;;;;;;;;5156777;27;20034;-59
2022/09/12 01:18:31;;;;;;;11.60;9.50;;;;;;;;;;5156731;27;20033;-59
2022/09/12 01:21:16;;;;;;;10.43;8.70;;;;;;;;;;5156661;27;20030;-59
2022/09/12 01:23:56;;;;;;;10.60;8.15;;;;;;;;;;5157227;27;20408;-59
2022/09/12 01:26:35;;;;;;;11.35;9.90;;;;;;;;;;5157042;27;20022;-59
2022/09/12 01:29:11;;;;;;;10.00;8.88;;;;;;;;;;5156469;27;20058;-59
2022/09/12 01:31:47;;;;;;;9.98;8.98;;;;;;;;;;5156472;27;20491;-59
2022/09/12 01:34:12;;;;;;;9.95;9.05;;;;;;;;;;5157060;27;20413;-59
2022/09/12 01:36:44;;;;;;;11.70;9.13;;;;;;;;;;5156415;27;20047;-59
2022/09/12 01:39:19;;;;;;;11.30;8.90;;;;;;;;;;5156940;27;20026;-59
2022/09/12 01:41:54;;;;;;;9.25;8.35;;;;;;;;;;5156696;27;20023;-59
2022/09/12 01:44:23;;;;;;;10.02;8.88;;;;;;;;;;5156840;27;20038;-59
2022/09/12 01:47:13;;;;;;;9.10;8.18;;;;;;;;;;5156261;27;20030;-59
2022/09/12 01:49:59;;;;;;;10.30;8.52;;;;;;;;;;5148225;27;20125;-59
2022/09/12 01:52:38;;;;;;;11.65;10.30;;;;;;;;;;5155680;27;20111;-59
2022/09/12 01:55:09;;;;;;;10.90;8.95;;;;;;;;;;5156628;27;20027;-59
2022/09/12 01:57:40;;;;;;;11.77;9.07;;;;;;;;;;5156919;27;20109;-59
2022/09/12 02:00:08;;;;;;;9.90;8.25;;;;;;;;;;5156015;27;20054;-59
2022/09/12 02:02:47;;;;;;;10.35;9.23;;;;;;;;;;5156301;27;20029;-59
2022/09/12 02:05:37;;;;;;;8.52;7.68;;;;;;;;;;5155995;27;20022;-59
2022/09/12 02:08:05;;;;;;;10.18;8.52;;;;;;;;;;5147554;27;20033;-59
2022/09/12 02:10:34;;;;;;;9.85;8.60;;;;;;;;;;5156321;27;20102;-59
2022/09/12 02:13:03;;;;;;;9.88;8.57;;;;;;;;;;5156091;27;20099;-59
2022/09/12 02:15:33;;;;;;;10.13;8.88;;;;;;;;;;5156348;27;20026;-59
2022/09/12 02:17:59;;;;;;;9.85;7.35;;;;;;;;;;5155812;27;20031;-59
2022/09/12 02:20:28;;;;;;;12.38;9.45;;;;;;;;;;5155641;27;20029;-59
2022/09/12 02:22:55;;;;;;;12.23;9.50;;;;;;;;;;5155941;27;20034;-59
2022/09/12 02:25:21;;;;;;;11.77;9.52;;;;;;;;;;5155460;27;20054;-59
2022/09/12 02:27:50;;;;;;;11.48;10.00;;;;;;;;;;5155614;27;20022;-59
2022/09/12 02:30:18;;;;;;;9.45;8.43;;;;;;;;;;5155791;27;20035;-59
2022/09/12 02:33:04;;;;;;;11.07;9.85;;;;;;;;;;5155558;27;20033;-59
2022/09/12 02:35:46;;;;;;;14.13;9.93;;;;;;;;;;5144800;27;20054;-59
2022/09/12 02:38:11;;;;;;;10.30;9.15;;;;;;;;;;5155986;27;20022;-59
2022/09/12 02:40:38;;;;;;;9.20;8.30;;;;;;;;;;5155560;27;20368;-59
2022/09/12 02:43:04;;;;;;;9.68;8.75;;;;;;;;;;5155552;27;20027;-59
2022/09/12 02:45:33;;;;;;;9.27;8.27;;;;;;;;;;5155523;27;20058;-59
2022/09/12 02:48:03;;;;;;;10.85;9.77;;;;;;;;;;5155448;27;20019;-59
2022/09/12 02:50:29;;;;;;;;;;;;;;;;;;5155497;27;20037;-59
2022/09/12 02:52:58;;;;;;;8.85;7.90;;;;;;;;;;5155986;27;20348;-59
2022/09/12 02:55:25;;;;;;;11.32;8.25;;;;;;;;;;5155879;27;20445;-59
2022/09/12 02:57:51;;;;;;;9.63;8.63;;;;;;;;;;5155313;27;20034;-59
2022/09/12 03:00:17;;;;;;;10.05;8.65;;;;;;;;;;5155855;27;20391;-59
2022/09/12 03:02:43;;;;;;;10.10;7.63;;;;;;;;;;5155000;27;20392;-59
2022/09/12 03:05:18;;;;;;;9.77;8.68;;;;;;;;;;5155343;27;20019;-59
2022/09/12 03:07:44;;;;;;;10.82;8.10;;;;;;;;;;5155253;27;20048;-59
2022/09/12 03:10:10;;;;;;;13.40;8.98;;;;;;;;;;5155370;27;20026;-59
2022/09/12 03:12:36;;;;;;;9.93;8.88;;;;;;;;;;5155123;27;20048;-59
2022/09/12 03:15:06;;;;;;;9.82;8.65;;;;;;;;;;5155547;27;20068;-59
2022/09/12 03:17:39;;;;;;;13.07;9.50;;;;;;;;;;5155117;27;20027;-59
2022/09/12 03:20:14;;;;;;;12.70;8.70;;;;;;;;;;5155159;27;20030;-59
2022/09/12 03:22:58;;;;;;;10.02;9.02;;;;;;;;;;5155613;27;20034;-59
2022/09/12 03:25:30;;;;;;;10.35;9.30;;;;;;;;;;5155347;27;20023;-59
2022/09/12 03:28:06;;;;;;;12.38;11.07;;;;;;;;;;5155631;27;20027;-59
2022/09/12 03:30:46;;;;;;;11.82;9.73;;;;;;;;;;5155189;27;20460;-59
2022/09/12 03:33:13;;;;;;;12.27;10.20;;;;;;;;;;5155104;27;20046;-59
2022/09/12 03:35:39;;;;;;;9.35;8.43;;;;;;;;;;5155003;27;20023;-59
2022/09/12 03:38:06;;;;;;;9.68;8.65;;;;;;;;;;5158357;27;20029;-59
2022/09/12 03:40:33;;;;;;;13.13;9.75;;;;;;;;;;5158624;27;20472;-59
2022/09/12 03:42:59;;;;;;;11.50;8.98;;;;;;;;;;5159029;27;20414;-59
2022/09/12 03:45:25;;;;;;;11.15;10.02;;;;;;;;;;5159085;27;20052;-59
2022/09/12 03:47:51;;;;;;;10.68;9.57;;;;;;;;;;5158581;27;20027;-59
2022/09/12 03:50:17;;;;;;;13.10;9.80;;;;;;;;;;5158440;27;20031;-59
2022/09/12 03:52:43;;;;;;;9.52;8.55;;;;;;;;;;5158046;27;20112;-59
2022/09/12 03:55:09;;;;;;;10.70;9.10;;;;;;;;;;5159067;27;20018;-59
2022/09/12 03:57:35;;;;;;;9.05;8.15;;;;;;;;;;5158372;27;20030;-59
2022/09/12 04:00:01;;;;;;;10.32;9.32;;;;;;;;;;5158372;27;20416;-59
2022/09/12 04:02:28;;;;;;;10.95;9.43;;;;;;;;;;5158270;27;20026;-59
2022/09/12 04:04:54;;;;;;;11.07;9.02;;;;;;;;;;5158850;27;20019;-59
2022/09/12 04:07:20;;;;;;;10.20;9.10;;;;;;;;;;5158514;27;20023;-59
2022/09/12 04:09:46;;;;;;;12.00;9.38;;;;;;;;;;5158369;27;20111;-59
2022/09/12 04:12:12;;;;;;;12.07;9.25;;;;;;;;;;5158081;27;20038;-59
2022/09/12 04:14:39;;;;;;;10.70;8.95;;;;;;;;;;5158373;27;20027;-59
2022/09/12 04:17:05;;;;;;;11.60;10.23;;;;;;;;;;5158540;27;20131;-59
2022/09/12 04:19:31;;;;;;;12.57;10.52;;;;;;;;;;5157994;27;20219;-59
2022/09/12 04:21:57;;;;;;;13.32;10.38;;;;;;;;;;5158218;27;20027;-59
2022/09/12 04:24:22;;;;;;;11.75;9.45;;;;;;;;;;5158298;27;20206;-59
2022/09/12 04:26:49;;;;;;;13.57;11.20;;;;;;;;;;5157615;27;20039;-59
2022/09/12 04:29:15;;;;;;;12.52;11.07;;;;;;;;;;5157754;27;20465;-59
2022/09/12 04:31:41;;;;;;;13.73;10.10;;;;;;;;;;5158509;27;20023;-59
2022/09/12 04:34:07;;;;;;;12.43;10.40;;;;;;;;;;5157774;27;20033;-59
2022/09/12 04:36:33;;;;;;;13.57;10.93;;;;;;;;;;5157620;27;20082;-59
2022/09/12 04:39:00;;;;;;;13.18;11.63;;;;;;;;;;5157602;27;20019;-59
2022/09/12 04:41:27;;;;;;;13.52;10.85;;;;;;;;;;5157857;27;20030;-59
2022/09/12 04:44:00;;;;;;;14.02;11.82;;;;;;;;;;5158058;27;20031;-59
2022/09/12 04:46:26;;;;;;;13.90;11.55;;;;;;;;;;5157397;27;20064;-59
2022/09/12 04:48:52;;;;;;;14.27;11.43;;;;;;;;;;5156605;27;20023;-59
2022/09/12 04:51:22;;;;;;;11.45;10.18;;;;;;;;;;5157091;27;20051;-59
2022/09/12 04:53:49;;;;;;;19.52;13.73;;;;;;;;;;5157607;27;20444;-59
2022/09/12 04:56:15;;;;;;;13.85;12.23;;;;;;;;;;5157219;27;20019;-59
2022/09/12 04:58:41;;;;;;;12.98;11.57;;;;;;;;;;5157178;27;20030;-59
2022/09/12 05:01:10;;;;;;;14.05;11.50;;;;;;;;;;5157135;27;20075;-59
2022/09/12 05:03:42;;;;;;;15.23;12.38;;;;;;;;;;5157718;27;20026;-59
2022/09/12 05:06:08;;;;;;;13.32;10.40;;;;;;;;;;5157620;27;20035;-59
2022/09/12 05:08:35;;;;;;;13.50;11.73;;;;;;;;;;5157519;27;20019;-59
2022/09/12 05:11:05;;;;;;;12.27;10.70;;;;;;;;;;5157437;27;20409;-59
2022/09/12 05:13:31;;;;;;;14.95;12.75;;;;;;;;;;5157076;27;20031;-59
2022/09/12 05:15:58;;;;;;;14.35;12.07;;;;;;;;;;5157132;27;20071;-59
2022/09/12 05:18:25;;;;;;;13.88;12.10;;;;;;;;;;5156801;27;20023;-59
2022/09/12 05:20:51;;;;;;;16.58;12.70;;;;;;;;;;5157116;27;20056;-59
2022/09/12 05:23:17;;;;;;;15.30;12.10;;;;;;;;;;5157190;27;20433;-59
2022/09/12 05:25:52;;;;;;;13.80;12.02;;;;;;;;;;5156579;27;20087;-59
2022/09/12 05:28:18;;;;;;;15.60;11.10;;;;;;;;;;5156904;27;20026;-59
2022/09/12 05:30:45;;;;;;;13.00;11.70;;;;;;;;;;5157013;27;20034;-59
2022/09/12 05:33:11;;;;;;;13.43;11.48;;;;;;;;;;5157183;27;20054;-59
2022/09/12 05:35:37;;;;;;;18.25;13.45;;;;;;;;;;5157093;27;20071;-59
2022/09/12 05:38:05;;;;;;;11.80;10.52;;;;;;;;;;5157215;27;20118;-59
2022/09/12 05:40:31;;;;;;;17.17;12.60;;;;;;;;;;5156590;27;20075;-59
2022/09/12 05:42:57;;;;;;;14.02;12.35;;;;;;;;;;5157052;27;20075;-59
2022/09/12 05:45:23;;;;;;;15.27;12.25;;;;;;;;;;5156325;27;20426;-59
2022/09/12 05:47:49;;;;;;;14.70;12.15;;;;;;;;;;5156214;27;20038;-59
2022/09/12 05:50:15;;;;;;;12.77;11.00;;;;;;;;;;5155976;27;20349;-59
2022/09/12 05:52:41;;;;;;;14.10;12.07;;;;;;;;;;5156761;27;20065;-59
2022/09/12 05:55:07;;;;;;;15.55;12.68;;;;;;;;;;5156715;27;20338;-59
2022/09/12 05:57:33;;;;;;;12.90;11.43;;;;;;;;;;5156048;27;20034;-59
2022/09/12 05:59:59;;;;;;;14.57;12.35;;;;;;;;;;5155536;27;20079;-59
2022/09/12 06:02:25;;;;;;;12.98;11.30;;;;;;;;;;5156178;27;20026;-59
2022/09/12 06:04:51;;;;;;;12.38;9.85;;;;;;;;;;5155620;27;20019;-59
2022/09/12 06:07:17;;;;;;;14.45;12.85;;;;;;;;;;5156106;27;20075;-59
2022/09/12 06:09:43;;;;;;;12.13;10.13;;;;;;;;;;5156027;27;20042;-59
2022/09/12 06:12:09;;;;;;;12.52;11.23;;;;;;;;;;5155794;27;20019;-59
2022/09/12 06:14:35;;;;;;;15.02;10.13;;;;;;;;;;5155762;27;20026;-59
2022/09/12 06:17:01;;;;;;;16.00;10.85;;;;;;;;;;5156200;27;20026;-59
2022/09/12 06:19:27;;;;;;;12.82;10.88;;;;;;;;;;5155664;27;20031;-59
2022/09/12 06:21:54;;;;;;;12.68;11.20;;;;;;;;;;5155606;27;20027;-59
2022/09/12 06:24:20;;;;;;;11.80;10.52;;;;;;;;;;5156499;27;20143;-59
2022/09/12 06:26:47;;;;;;;13.98;10.75;;;;;;;;;;5155245;27;20523;-59
2022/09/12 06:29:13;;;;;;;14.65;11.88;;;;;;;;;;5155627;27;20384;-59
2022/09/12 06:31:40;;;;;;;13.45;11.57;;;;;;;;;;5156083;27;20405;-59
2022/09/12 06:34:07;;;;;;;14.75;12.48;;;;;;;;;;5156133;27;20027;-59
2022/09/12 06:36:37;;;;;;;14.52;12.77;;;;;;;;;;5155745;27;20034;-59
2022/09/12 06:39:05;;;;;;;14.10;12.40;;;;;;;;;;5155760;27;20037;-59
2022/09/12 06:41:32;;;;;;;15.77;12.80;;;;;;;;;;5155327;27;20033;-59
2022/09/12 06:43:58;;;;;;;15.45;11.30;;;;;;;;;;5156045;27;20021;-59
2022/09/12 06:46:24;;;;;;;11.93;10.05;;;;;;;;;;5155408;27;20015;-59
2022/09/12 06:48:50;;;;;;;16.90;10.10;;;;;;;;;;5155256;27;20471;-59
2022/09/12 06:51:17;;;;;;;13.70;10.50;;;;;;;;;;5155116;27;20055;-60
2022/09/12 06:53:44;;;;;;;17.73;10.52;;;;;;;;;;5155003;27;20376;-60
2022/09/12 06:56:10;;;;;;;13.45;11.35;;;;;;;;;;5155482;27;20038;-60
2022/09/12 06:58:37;;;;;;;15.55;10.82;;;;;;;;;;5155739;27;20026;-60
2022/09/12 07:01:04;;;;;;;12.77;10.25;;;;;;;;;;5155977;27;20062;-60
2022/09/12 07:03:30;;;;;;;11.57;8.85;;;;;;;;;;5155829;27;20048;-59
2022/09/12 07:05:56;;;;;;;15.38;10.52;;;;;;;;;;5154879;27;20479;-60
2022/09/12 07:08:22;;;;;;;12.00;9.70;;;;;;;;;;5155191;27;20030;-60
2022/09/12 07:10:48;;;;;;;14.98;9.98;;;;;;;;;;5155577;27;20386;-60
2022/09/12 07:13:14;;;;;;;11.00;8.80;;;;;;;;;;5159375;27;20371;-60
2022/09/12 07:15:40;;;;;;;10.40;9.20;;;;;;;;;;5160077;27;20035;-60
2022/09/12 07:18:06;;;;;;;10.93;9.40;;;;;;;;;;5159462;27;20333;-60
2022/09/12 07:20:32;;;;;;;12.15;9.23;;;;;;;;;;5159948;27;20333;-60
2022/09/12 07:22:59;;;;;;;11.68;10.52;;;;;;;;;;5159427;27;20106;-60
2022/09/12 07:25:25;;;;;;;8.73;7.20;;;;;;;;;;5159577;27;20023;-60
2022/09/12 07:27:52;;;;;;;10.02;9.00;;;;;;;;;;5158938;27;20067;-60
2022/09/12 07:30:18;;;;;;;9.13;8.13;;;;;;;;;;5159203;27;20101;-60
2022/09/12 07:32:44;;;;;;;9.23;8.32;;;;;;;;;;5159693;27;20058;-60
2022/09/12 07:35:10;;;;;;;9.43;8.48;;;;;;;;;;5158934;27;20346;-57
2022/09/12 07:37:36;;;;;;;10.38;7.53;;;;;;;;;;5159085;27;20027;-57
2022/09/12 07:40:02;;;;;;;8.25;6.97;;;;;;;;;;5158741;27;20353;-58
2022/09/12 07:42:28;;;;;;;9.77;8.30;;;;;;;;;;5158856;27;20019;-58
2022/09/12 07:44:54;;;;;;;8.13;7.32;;;;;;;;;;5158692;27;20050;-57
2022/09/12 07:47:20;;;;;;;7.53;6.72;;;;;;;;;;5158741;27;20019;-57
2022/09/12 07:49:46;;;;;;;8.27;7.22;;;;;;;;;;5158576;27;20092;-57
2022/09/12 07:52:12;;;;;;;9.50;7.93;;;;;;;;;;5159153;27;20150;-57
2022/09/12 07:54:39;;;;;;;9.35;7.57;;;;;;;;;;5158450;27;20070;-57
2022/09/12 07:57:05;;;;;;;10.75;7.38;;;;;;;;;;5158650;27;20034;-58
2022/09/12 07:59:31;;;;;;;9.60;8.07;;;;;;;;;;5158306;27;20018;-58
2022/09/12 08:01:57;;;;;;;8.60;6.68;;;;;;;;;;5158321;27;20468;-58
2022/09/12 08:04:23;;;;;;;7.53;6.78;;;;;;;;;;5158287;27;20041;-58
2022/09/12 08:06:49;;;;;;;8.40;6.65;;;;;;;;;;5158142;27;20430;-58
2022/09/12 08:09:16;;;;;;;6.22;5.55;;;;;;;;;;5157931;27;20054;-58
2022/09/12 08:11:42;;;;;;;5.30;4.80;;;;;;;;;;5158817;27;20046;-58
2022/09/12 08:14:08;;;;;;;5.43;4.82;;;;;;;;;;5158723;27;20045;-58
2022/09/12 08:16:34;;;;;;;5.43;4.68;;;;;;;;;;5157968;27;20019;-58
2022/09/12 08:19:01;;;;;;;5.72;4.82;;;;;;;;;;5158761;27;20015;-58
2022/09/12 08:21:29;;;;;;;5.22;4.72;;;;;;;;;;5157893;27;20106;-58
2022/09/12 08:23:57;;;;;;;4.75;4.07;;;;;;;;;;5157829;27;20030;-58
2022/09/12 08:26:23;;;;;;;4.88;3.92;;;;;;;;;;5157862;27;20482;-58
2022/09/12 08:28:50;;;;;;;4.28;3.58;;;;;;;;;;5158329;27;20030;-58
2022/09/12 08:31:17;;;;;;;3.60;2.78;;;;;;;;;;5158572;27;20058;-58
2022/09/12 08:33:43;;;;;;;3.92;3.25;;;;;;;;;;5158025;27;20035;-58
2022/09/12 08:36:11;;;;;;;3.95;3.33;;;;;;;;;;5157584;27;20023;-58
2022/09/12 08:38:37;;;;;;;3.17;2.72;;;;;;;;;;5157567;27;20031;-58
2022/09/12 08:41:04;;;;;;;4.57;3.63;;;;;;;;;;5157870;27;20030;-58
2022/09/12 08:43:41;;;;;;;4.70;3.50;;;;;;;;;;5158096;27;20011;-58
2022/09/12 08:46:20;;;;;;;3.05;2.55;;;;;;;;;;5157560;27;20022;-58
2022/09/12 08:48:46;;;;;;;4.13;2.70;;;;;;;;;;5157721;27;20118;-58
2022/09/12 08:51:14;;;;;;;3.00;2.53;;;;;;;;;;5157179;27;20053;-58
2022/09/12 08:53:41;;;;;;;5.20;3.58;;;;;;;;;;5157300;27;20456;-58
2022/09/12 08:56:10;;;;;;;5.45;3.35;;;;;;;;;;5157147;27;20487;-58
2022/09/12 08:58:38;;;;;;;4.63;2.80;;;;;;;;;;5157743;27;20022;-58
2022/09/12 09:01:19;;;;;;;4.22;3.72;;;;;;;;;;5156788;27;20497;-58
2022/09/12 09:03:49;;;;;;;5.28;3.03;;;;;;;;;;5157637;27;20083;-58
2022/09/12 09:06:33;;;;;;;2.67;2.30;;;;;;;;;;5156924;27;20113;-58
2022/09/12 09:09:16;;;;;;;3.28;2.40;;;;;;;;;;5157221;27;20034;-58
2022/09/12 09:11:52;;;;;;;3.67;2.85;;;;;;;;;;5156821;27;20042;-58
2022/09/12 09:17:10;;;;;;;2.90;2.17;;;;;;;;;;5156571;27;20145;-58
2022/09/12 09:19:38;;;;;;;3.05;2.28;;;;;;;;;;5156677;27;20029;-58
2022/09/12 09:22:07;;;;;;;4.50;2.85;;;;;;;;;;5155352;27;20109;-58
2022/09/12 09:24:36;;;;;;;4.00;2.78;;;;;;;;;;5157235;27;20042;-58
2022/09/12 09:27:10;;;;;;;4.13;2.65;;;;;;;;;;5156285;27;20480;-58
2022/09/12 09:29:39;;;;;;;3.60;2.22;;;;;;;;;;5157251;27;20050;-58
2022/09/12 09:32:12;;;;;;;2.83;2.53;;;;;;;;;;5157065;27;20475;-58
2022/09/12 09:34:38;;;;;;;3.30;2.70;;;;;;;;;;5156058;27;20504;-58
2022/09/12 09:37:13;;;;;;;2.92;2.10;;;;;;;;;;5156437;27;20038;-58
2022/09/12 09:39:50;;;;;;;3.15;2.33;;;;;;;;;;5156441;27;20018;-58
2022/09/12 09:42:19;;;;;;;2.97;2.35;;;;;;;;;;5156806;27;20023;-58
2022/09/12 09:44:47;;;;;;;3.78;2.28;;;;;;;;;;5156291;27;20436;-58
2022/09/12 09:47:14;;;;;;;5.60;1.83;;;;;;;;;;5156085;27;20030;-58
2022/09/12 09:49:40;;;;;;;3.47;2.53;;;;;;;;;;5155906;27;20402;-58
2022/09/12 09:52:07;;;;;;;2.95;1.85;;;;;;;;;;5156067;27;20043;-58
2022/09/12 09:54:56;;;;;;;4.45;2.25;;;;;;;;;;5156709;27;20030;-58
2022/09/12 09:57:35;;;;;;;3.28;2.10;;;;;;;;;;5147672;27;20066;-58
2022/09/12 10:00:25;;;;;;;2.95;2.05;;;;;;;;;;5155837;27;20034;-58
2022/09/12 10:03:03;;;;;;;2.42;2.00;;;;;;;;;;5156268;27;20105;-58
2022/09/12 10:05:30;;;;;;;2.67;2.25;;;;;;;;;;5156359;27;20337;-58
2022/09/12 10:07:56;;;;;;;3.05;2.13;;;;;;;;;;5156019;27;20455;-58
2022/09/12 10:10:22;;;;;;;2.58;1.60;;;;;;;;;;5155828;27;20041;-58
2022/09/12 10:12:48;;;;;;;2.60;1.50;;;;;;;;;;5155415;27;20018;-58
2022/09/12 10:15:18;;;;;;;2.83;1.73;;;;;;;;;;5156294;27;20390;-58
2022/09/12 10:17:45;;;;;;;2.35;1.80;;;;;;;;;;5155851;27;20471;-58
2022/09/12 10:20:38;;;;;;;3.33;2.03;;;;;;;;;;5155634;27;20513;-58
2022/09/12 10:23:28;;;;;;;3.05;1.67;;;;;;;;;;5152809;27;20034;-58
2022/09/12 10:25:56;;;;;;;2.00;1.40;;;;;;;;;;5147010;27;20031;-58
2022/09/12 10:28:31;;;;;;;2.83;1.85;;;;;;;;;;5155944;27;20042;-58
2022/09/12 10:31:00;;;;;;;2.30;1.73;;;;;;;;;;5156036;27;20026;-58
2022/09/12 10:33:26;;;;;;;2.53;1.80;;;;;;;;;;5156131;27;20146;-58
2022/09/12 10:35:53;;;;;;;1.98;1.33;;;;;;;;;;5154640;27;20019;-59
2022/09/12 10:38:24;;;;;;;1.98;1.38;;;;;;;;;;5155465;27;20026;-58
2022/09/12 10:40:58;;;;;;;3.47;1.50;;;;;;;;;;5155472;27;20022;-58
2022/09/12 10:43:24;;;;;;;3.95;1.58;;;;;;;;;;5155988;27;20034;-58
2022/09/12 10:45:50;;;;;;;3.25;1.48;;;;;;;;;;5158019;27;20437;-58
2022/09/12 10:48:30;;;;;;;2.50;1.80;;;;;;;;;;5159742;27;20015;-58
2022/09/12 10:50:56;;;;;;;4.38;2.10;;;;;;;;;;5159435;27;20476;-59
2022/09/12 10:53:27;;;;;;;4.88;2.80;;;;;;;;;;5160570;27;20050;-58
2022/09/12 10:56:06;;;;;;;3.15;1.55;;;;;;;;;;5159684;27;20364;-58
2022/09/12 10:58:50;;;;;;;3.65;2.00;;;;;;;;;;5159547;27;20026;-58
2022/09/12 11:01:32;;;;;;;2.20;1.52;;;;;;;;;;5159502;27;20054;-58
2022/09/12 11:04:07;;;;;;;3.30;1.60;;;;;;;;;;5160009;27;20023;-58
2022/09/12 11:06:37;;;;;;;3.80;1.90;;;;;;;;;;5159693;27;20029;-58
2022/09/12 11:09:09;;;;;;;2.20;1.30;;;;;;;;;;5159585;27;20023;-58
2022/09/12 11:11:40;;;;;;;2.80;1.40;;;;;;;;;;5159727;27;20341;-58
2022/09/12 11:14:12;;;;;;;2.03;1.27;;;;;;;;;;5159595;27;20359;-58
2022/09/12 11:16:44;;;;;;;2.38;1.42;;;;;;;;;;5159596;27;20015;-58
2022/09/12 11:19:29;;;;;;;1.95;1.27;;;;;;;;;;5158915;27;20085;-58
2022/09/12 11:22:00;;;;;;;2.33;1.30;;;;;;;;;;5158970;27;20069;-58
2022/09/12 11:24:45;;;;;;;2.17;1.27;;;;;;;;;;5159423;27;20334;-58
2022/09/12 11:27:30;;;;;;;1.73;1.05;;;;;;;;;;5159043;27;20018;-58
2022/09/12 11:30:08;;;;;;;1.52;0.95;;;;;;;;;;5159098;27;20518;-58
2022/09/12 11:32:46;;;;;;;1.58;0.90;;;;;;;;;;5158684;27;20467;-58
2022/09/12 11:35:27;;;;;;;1.92;1.13;;;;;;;;;;5159033;27;20049;-58
2022/09/12 11:37:59;;;;;;;2.30;1.00;;;;;;;;;;5158895;27;20023;-59
2022/09/12 11:40:26;;;;;;;1.92;0.80;;;;;;;;;;5158742;27;20033;-59
2022/09/12 11:42:54;;;;;;;1.73;0.80;;;;;;;;;;5158659;27;20022;-59
2022/09/12 11:45:23;;;;;;;1.75;0.90;;;;;;;;;;5158649;27;20022;-59
2022/09/12 11:47:52;;;;;;;1.58;0.98;;;;;;;;;;5159015;27;20025;-58
2022/09/12 11:50:27;;;;;;;2.55;1.08;;;;;;;;;;5158695;27;20031;-58
2022/09/12 11:52:54;;;;;;;1.77;0.90;;;;;;;;;;5158496;27;20133;-58
2022/09/12 11:55:24;;;;;;;1.50;0.85;;;;;;;;;;5158493;27;20022;-59
2022/09/12 11:57:50;;;;;;;1.52;0.80;;;;;;;;;;5158104;27;20417;-59
2022/09/12 12:00:21;;;;;;;2.10;1.20;;;;;;;;;;5158414;27;20033;-59
2022/09/12 12:02:58;;;;;;;1.50;0.77;;;;;;;;;;5158430;27;20062;-59
2022/09/12 12:05:27;;;;;;;1.40;0.88;;;;;;;;;;5158399;27;20066;-58
2022/09/12 12:07:53;;;;;;;1.27;0.68;;;;;;;;;;5158276;27;20041;-59
2022/09/12 12:10:35;;;;;;;1.63;0.90;;;;;;;;;;5158158;27;20019;-59
2022/09/12 12:13:03;;;;;;;2.55;1.23;;;;;;;;;;5158151;27;20019;-59
2022/09/12 12:15:29;;;;;;;1.48;0.80;;;;;;;;;;5158472;27;20035;-59
2022/09/12 12:18:03;;;;;;;1.20;0.60;;;;;;;;;;5158095;27;20353;-59
2022/09/12 12:20:29;;;;;;;1.20;0.65;;;;;;;;;;5158305;27;20026;-59
2022/09/12 12:22:55;;;;;;;1.33;0.80;;;;;;;;;;5158276;27;20125;-59
2022/09/12 12:25:23;;;;;;;1.92;1.13;;;;;;;;;;5157909;27;20030;-59
2022/09/12 12:27:52;;;;;;;1.42;0.88;;;;;;;;;;5157843;27;20030;-59
2022/09/12 12:30:30;;;;;;;1.58;0.82;;;;;;;;;;5158276;27;20023;-59
2022/09/12 12:33:00;;;;;;;2.20;0.95;;;;;;;;;;5157761;27;20023;-59
2022/09/12 12:35:38;;;;;;;2.10;0.97;;;;;;;;;;5157802;27;20029;-59
2022/09/12 12:38:05;;;;;;;3.47;1.08;;;;;;;;;;5157621;27;20483;-58
2022/09/12 12:40:31;;;;;;;1.63;0.95;;;;;;;;;;5157441;27;20026;-59
2022/09/12 12:42:59;;;;;;;1.65;0.90;;;;;;;;;;5157949;27;20050;-59
2022/09/12 12:45:24;;;;;;;4.65;1.02;;;;;;;;;;5158208;27;20023;-59
2022/09/12 12:47:53;;;;;;;2.10;1.27;;;;;;;;;;5157798;27;20025;-59
2022/09/12 12:50:19;;;;;;;1.98;1.13;;;;;;;;;;5157214;27;20049;-59
2022/09/12 12:52:45;;;;;;;2.65;0.70;;;;;;;;;;5158261;27;20043;-59
2022/09/12 12:55:21;;;;;;;1.52;0.80;;;;;;;;;;5157880;27;20364;-59
2022/09/12 12:57:55;;;;;;;1.13;0.60;;;;;;;;;;5157544;27;20033;-59
2022/09/12 13:00:24;;;;;;;1.15;0.60;;;;;;;;;;5158006;27;20026;-59
2022/09/12 13:03:01;;;;;;;1.17;0.60;;;;;;;;;;5157014;27;20083;-59
2022/09/12 13:05:30;;;;;;;2.17;0.60;;;;;;;;;;5157345;27;20072;-59
2022/09/12 13:07:57;;;;;;;2.35;0.95;;;;;;;;;;5157336;27;20347;-59
2022/09/12 13:10:27;;;;;;;1.20;0.60;;;;;;;;;;5156428;27;20027;-59
2022/09/12 13:12:54;;;;;;;1.85;0.75;;;;;;;;;;5156898;27;20405;-59
2022/09/12 13:15:47;;;;;;;2.17;0.68;;;;;;;;;;5156723;27;20037;-59
2022/09/12 13:18:15;;;;;;;1.15;0.50;;;;;;;;;;5157271;27;20029;-59
2022/09/12 13:20:46;;;;;;;1.20;0.60;;;;;;;;;;5156733;27;20030;-59
2022/09/12 13:23:29;;;;;;;0.88;0.60;;;;;;;;;;5157313;27;20034;-59
2022/09/12 13:25:57;;;;;;;1.40;0.70;;;;;;;;;;5157154;27;20428;-59
2022/09/12 13:28:25;;;;;;;0.90;0.50;;;;;;;;;;5156670;27;20027;-60
2022/09/12 13:31:06;;;;;;;2.03;0.77;;;;;;;;;;5157091;27;20482;-59
2022/09/12 13:33:37;;;;;;;1.27;0.55;;;;;;;;;;5157143;27;20022;-60
2022/09/12 13:36:26;;;;;;;1.65;0.50;;;;;;;;;;5156473;27;20384;-59
2022/09/12 13:38:55;;;;;;;1.30;0.55;;;;;;;;;;5148360;27;20046;-60
2022/09/12 13:41:21;;;;;;;2.88;0.68;;;;;;;;;;5156449;27;20038;-59
2022/09/12 13:43:48;;;;;;;1.35;0.50;;;;;;;;;;5156781;27;20352;-59
2022/09/12 13:46:16;;;;;;;1.67;0.80;;;;;;;;;;5156914;27;20018;-60
2022/09/12 13:48:42;;;;;;;1.55;0.68;;;;;;;;;;5156291;27;20388;-60
2022/09/12 13:51:18;;;;;;;1.50;0.80;;;;;;;;;;5155949;27;20387;-59
2022/09/12 13:53:45;;;;;;;0.70;0.40;;;;;;;;;;5156768;27;20019;-60
2022/09/12 13:56:18;;;;;;;1.50;0.80;;;;;;;;;;5156134;27;20320;-59
2022/09/12 13:58:53;;;;;;;1.05;0.63;;;;;;;;;;5156080;27;20034;-59
2022/09/12 14:01:19;;;;;;;2.03;0.60;;;;;;;;;;5155907;27;20022;-59
2022/09/12 14:06:51;;;;;;;1.20;0.55;;;;;;;;;;5155991;27;20034;-59
2022/09/12 14:09:23;;;;;;;2.40;0.70;;;;;;;;;;5156234;27;20033;-60
2022/09/12 14:11:50;;;;;;;1.15;0.50;;;;;;;;;;5155803;27;20029;-59
2022/09/12 14:14:18;;;;;;;3.10;0.45;;;;;;;;;;5156402;27;20080;-59
2022/09/12 14:16:44;;;;;;;1.55;0.73;;;;;;;;;;5155766;27;20030;-59
2022/09/12 14:19:11;;;;;;;0.95;0.50;;;;;;;;;;5156258;27;20413;-59
2022/09/12 14:21:37;;;;;;;1.25;0.63;;;;;;;;;;5155307;27;20034;-59
2022/09/12 14:24:05;;;;;;;1.40;0.70;;;;;;;;;;5155910;27;20030;-59
2022/09/12 14:26:36;;;;;;;1.67;1.13;;;;;;;;;;5155338;27;20033;-60
2022/09/12 14:29:05;;;;;;;1.10;0.50;;;;;;;;;;5155390;27;20021;-59
2022/09/12 14:31:32;;;;;;;1.30;0.75;;;;;;;;;;5155462;27;20029;-60
2022/09/12 14:34:11;;;;;;;1.48;0.75;;;;;;;;;;5155630;27;20471;-59
2022/09/12 14:36:43;;;;;;;1.63;0.90;;;;;;;;;;5156138;27;20023;-59
2022/09/12 14:39:18;;;;;;;1.95;0.80;;;;;;;;;;5155941;27;20019;-59
2022/09/12 14:41:45;;;;;;;3.30;0.93;;;;;;;;;;5155344;27;20030;-59
2022/09/12 14:44:19;;;;;;;0.93;0.50;;;;;;;;;;5155378;27;20061;-59
2022/09/12 14:46:45;;;;;;;1.35;0.65;;;;;;;;;;5155316;27;20059;-59
2022/09/12 14:49:27;;;;;;;6.38;1.50;;;;;;;;;;5155879;27;20030;-59
2022/09/12 14:51:58;;;;;;;1.17;0.68;;;;;;;;;;5155234;27;20141;-59
2022/09/12 14:54:30;;;;;;;1.85;0.85;;;;;;;;;;5155124;27;20142;-59